Temp: 11.8°C   Baro: 1029.0mb
  Wind: 0.0mph   Dir: NE (51°)
  Rain: 0.0mm (0.0mm/hr)
  Solar: 0W/m2  Hum: 81%
 
Bath Spa Weather Historical Data
Daily Summary for June 15, 2019 Units:  Metric    English   Both
Next Day »
Daily Weekly Monthly Yearly Custom
  High: Low: Average:
Temperature: 15.0 °C 9.5 °C 12 °C
Dew Point: 11.7 °C 8.3 °C 9.8 °C
Humidity: 92% 76% 86%
Wind Speed: 20.9km/h 0.0km/h 5.4km/h
Wind Gust: 29.0km/h - -
Wind direction- - SSW
Pressure: 1013.8 hPa 1009.7 hPa -
Precipitation: 3.3 mm    
Historical Graphs
 
 
Tabular Data for June 15, 2019
Time Temperature Dew Point Pressure Wind direction Wind Speed Wind Gust Humidity Rainfall Rate (Hourly) solar
00:04 10.9 °C 8.8 °C 1010.7 hPa SSE 6.4 km/h 12.9 km/h 87% 0.0 mm 0.00 W/m2
00:09 10.9 °C 8.8 °C 1010.7 hPa SSE 4.7 km/h 8.0 km/h 87% 0.0 mm 0.00 W/m2
00:14 10.9 °C 8.8 °C 1010.7 hPa South 6.4 km/h 12.9 km/h 87% 0.0 mm 0.00 W/m2
00:19 10.9 °C 8.8 °C 1010.7 hPa South 14.3 km/h 17.7 km/h 87% 0.0 mm 0.00 W/m2
00:24 10.9 °C 8.8 °C 1010.7 hPa SSW 1.4 km/h 8.0 km/h 87% 0.0 mm 0.00 W/m2
00:29 10.8 °C 8.9 °C 1010.7 hPa South 7.9 km/h 16.1 km/h 88% 0.0 mm 0.00 W/m2
00:34 10.8 °C 8.9 °C 1010.7 hPa South 4.7 km/h 8.0 km/h 88% 0.0 mm 0.00 W/m2
00:39 10.8 °C 8.9 °C 1010.7 hPa South 6.4 km/h 12.9 km/h 88% 0.0 mm 0.00 W/m2
00:44 10.8 °C 8.9 °C 1010.7 hPa SSW 6.4 km/h 14.5 km/h 88% 0.0 mm 0.00 W/m2
00:49 10.8 °C 8.9 °C 1010.7 hPa SSW 6.4 km/h 11.3 km/h 88% 0.0 mm 0.00 W/m2
00:54 10.8 °C 8.9 °C 1010.7 hPa SSE 11.1 km/h 12.9 km/h 88% 0.0 mm 0.00 W/m2
00:59 10.9 °C 9.0 °C 1010.7 hPa SSE 4.7 km/h 9.7 km/h 88% 0.0 mm 0.00 W/m2
01:04 10.9 °C 9.0 °C 1010.7 hPa SSW 4.7 km/h 6.4 km/h 88% 0.0 mm 0.00 W/m2
01:09 10.8 °C 8.9 °C 1010.7 hPa South 3.2 km/h 11.3 km/h 88% 0.0 mm 0.00 W/m2
01:14 10.8 °C 8.9 °C 1010.7 hPa South 1.4 km/h 8.0 km/h 88% 0.0 mm 0.00 W/m2
01:19 10.8 °C 8.9 °C 1010.7 hPa Calm   6.4 km/h 88% 0.0 mm 0.00 W/m2
01:24 10.8 °C 8.9 °C 1010.7 hPa SSE 1.4 km/h 6.4 km/h 88% 0.0 mm 0.00 W/m2
01:29 10.8 °C 9.1 °C 1010.7 hPa Calm   8.0 km/h 89% 0.0 mm 0.00 W/m2
01:34 10.8 °C 9.1 °C 1010.7 hPa South 6.4 km/h 6.4 km/h 89% 0.0 mm 0.00 W/m2
01:39 10.8 °C 9.1 °C 1010.4 hPa SSE 3.2 km/h 9.7 km/h 89% 0.0 mm 0.00 W/m2
01:44 10.8 °C 9.1 °C 1010.4 hPa SSE 6.4 km/h 9.7 km/h 89% 0.0 mm 0.00 W/m2
01:49 10.8 °C 9.1 °C 1010.4 hPa SSE 6.4 km/h 11.3 km/h 89% 0.0 mm 0.00 W/m2
01:54 10.8 °C 9.1 °C 1010.4 hPa SSE 7.9 km/h 11.3 km/h 89% 0.0 mm 0.00 W/m2
01:59 10.7 °C 9.0 °C 1010.4 hPa South 4.7 km/h 11.3 km/h 89% 0.0 mm 0.00 W/m2
02:04 10.7 °C 9.0 °C 1010.4 hPa South 9.7 km/h 9.7 km/h 89% 0.0 mm 0.00 W/m2
02:09 10.7 °C 9.0 °C 1010.4 hPa Calm   4.8 km/h 89% 0.0 mm 0.00 W/m2
02:14 10.7 °C 9.0 °C 1010.4 hPa South 4.7 km/h 12.9 km/h 89% 0.0 mm 0.00 W/m2
02:19 10.7 °C 9.0 °C 1010.4 hPa SE 3.2 km/h 4.8 km/h 89% 0.0 mm 0.00 W/m2
02:24 10.7 °C 9.0 °C 1010.0 hPa SSE 3.2 km/h 9.7 km/h 89% 0.0 mm 0.00 W/m2
02:29 10.6 °C 8.9 °C 1010.4 hPa SSE 12.9 km/h 12.9 km/h 89% 0.0 mm 0.00 W/m2
02:34 10.5 °C 8.8 °C 1010.4 hPa SSE 1.4 km/h 4.8 km/h 89% 0.0 mm 0.00 W/m2
02:39 10.5 °C 8.8 °C 1010.4 hPa Calm   4.8 km/h 89% 0.0 mm 0.00 W/m2
02:44 10.5 °C 8.8 °C 1010.4 hPa SSE 1.4 km/h 8.0 km/h 89% 0.0 mm 0.00 W/m2
02:49 10.5 °C 8.9 °C 1010.4 hPa SSE 3.2 km/h 6.4 km/h 90% 0.0 mm 0.00 W/m2
02:54 10.5 °C 8.9 °C 1010.0 hPa SSE 4.7 km/h 8.0 km/h 90% 0.0 mm 0.00 W/m2
02:59 10.5 °C 8.9 °C 1010.0 hPa SSE 1.4 km/h 8.0 km/h 90% 0.0 mm 0.00 W/m2
03:04 10.4 °C 8.8 °C 1010.0 hPa SSE 6.4 km/h 9.7 km/h 90% 0.0 mm 0.00 W/m2
03:09 10.4 °C 8.8 °C 1010.0 hPa SSE 1.4 km/h 8.0 km/h 90% 0.0 mm 0.00 W/m2
03:14 10.4 °C 8.8 °C 1010.0 hPa SSE 1.4 km/h 9.7 km/h 90% 0.0 mm 0.00 W/m2
03:19 10.4 °C 8.8 °C 1010.0 hPa SSE 1.4 km/h 6.4 km/h 90% 0.0 mm 0.00 W/m2
03:24 10.3 °C 8.7 °C 1010.0 hPa SSE 3.2 km/h 6.4 km/h 90% 0.0 mm 0.00 W/m2
03:29 10.3 °C 8.7 °C 1010.0 hPa SSE 3.2 km/h 8.0 km/h 90% 0.0 mm 0.00 W/m2
03:34 10.3 °C 8.7 °C 1010.0 hPa SSE 11.1 km/h 12.9 km/h 90% 0.0 mm 0.00 W/m2
03:39 10.2 °C 8.6 °C 1010.0 hPa SSE 6.4 km/h 8.0 km/h 90% 0.0 mm 0.00 W/m2
03:44 10.2 °C 8.6 °C 1010.0 hPa SSE 1.4 km/h 6.4 km/h 90% 0.0 mm 0.00 W/m2
03:49 10.2 °C 8.6 °C 1010.0 hPa SE 9.7 km/h 9.7 km/h 90% 0.0 mm 0.00 W/m2
03:54 10.2 °C 8.6 °C 1010.0 hPa SSE 3.2 km/h 4.8 km/h 90% 0.0 mm 0.00 W/m2
03:59 10.1 °C 8.5 °C 1010.0 hPa SSE 1.4 km/h 6.4 km/h 90% 0.0 mm 0.00 W/m2
04:04 10.1 °C 8.5 °C 1010.0 hPa SSE 12.9 km/h 12.9 km/h 90% 0.0 mm 0.00 W/m2
04:09 10.0 °C 8.4 °C 1010.0 hPa SSE 4.7 km/h 8.0 km/h 90% 0.0 mm 0.00 W/m2
04:14 10.0 °C 8.4 °C 1010.0 hPa SSE 3.2 km/h 8.0 km/h 90% 0.0 mm 0.00 W/m2
04:19 10.0 °C 8.6 °C 1010.0 hPa SE 6.4 km/h 6.4 km/h 91% 0.0 mm 0.00 W/m2
04:24 10.0 °C 8.4 °C 1010.0 hPa SE 4.7 km/h 6.4 km/h 90% 0.0 mm 0.00 W/m2
04:29 10.0 °C 8.4 °C 1010.0 hPa SE 7.9 km/h 11.3 km/h 90% 0.0 mm 0.00 W/m2
04:34 10.0 °C 8.4 °C 1010.0 hPa ESE 6.4 km/h 6.4 km/h 90% 0.0 mm 0.00 W/m2
04:39 9.9 °C 8.3 °C 1010.0 hPa ESE 3.2 km/h 9.7 km/h 90% 0.0 mm 0.00 W/m2
04:44 9.9 °C 8.3 °C 1010.0 hPa East 3.2 km/h 8.0 km/h 90% 0.0 mm 0.00 W/m2
04:49 9.9 °C 8.5 °C 1010.0 hPa East 6.4 km/h 8.0 km/h 91% 0.0 mm 0.00 W/m2
04:54 9.9 °C 8.5 °C 1010.0 hPa ESE 4.7 km/h 11.3 km/h 91% 0.0 mm 0.00 W/m2
04:59 9.9 °C 8.5 °C 1010.0 hPa SSE 7.9 km/h 11.3 km/h 91% 0.0 mm 0.00 W/m2
05:04 9.9 °C 8.5 °C 1010.0 hPa Calm   8.0 km/h 91% 0.0 mm 5.00 W/m2
05:09 10.0 °C 8.6 °C 1010.0 hPa SE 4.7 km/h 6.4 km/h 91% 0.0 mm 7.00 W/m2
05:14 10.0 °C 8.6 °C 1010.0 hPa SE 4.7 km/h 8.0 km/h 91% 0.0 mm 11.00 W/m2
05:19 10.2 °C 8.8 °C 1010.0 hPa ESE 3.2 km/h 8.0 km/h 91% 0.0 mm 14.00 W/m2
05:24 10.2 °C 8.8 °C 1010.0 hPa ESE 1.4 km/h 8.0 km/h 91% 0.0 mm 23.00 W/m2
05:29 10.2 °C 8.8 °C 1010.0 hPa ESE 4.7 km/h 8.0 km/h 91% 0.0 mm 28.00 W/m2
05:34 10.3 °C 8.9 °C 1010.0 hPa SE 3.2 km/h 9.7 km/h 91% 0.0 mm 30.00 W/m2
05:39 10.4 °C 9.0 °C 1010.0 hPa Calm   9.7 km/h 91% 0.0 mm 30.00 W/m2
05:44 10.5 °C 9.1 °C 1010.0 hPa SSE 6.4 km/h 11.3 km/h 91% 0.0 mm 35.00 W/m2
05:49 10.6 °C 9.2 °C 1010.0 hPa SSE 6.4 km/h 9.7 km/h 91% 0.0 mm 37.00 W/m2
05:54 10.7 °C 9.1 °C 1010.0 hPa SSE 12.9 km/h 12.9 km/h 90% 0.0 mm 44.00 W/m2
05:59 10.9 °C 9.3 °C 1010.0 hPa SSE 20.9 km/h 20.9 km/h 90% 0.0 mm 51.00 W/m2
06:04 11.0 °C 9.4 °C 1010.0 hPa SE 3.2 km/h 11.3 km/h 90% 0.0 mm 54.00 W/m2
06:09 11.0 °C 9.4 °C 1009.7 hPa South 9.7 km/h 14.5 km/h 90% 0.0 mm 65.00 W/m2
06:14 11.1 °C 9.5 °C 1009.7 hPa SSE 7.9 km/h 9.7 km/h 90% 0.0 mm 81.00 W/m2
06:19 11.3 °C 9.6 °C 1009.7 hPa South 4.7 km/h 14.5 km/h 89% 0.0 mm 93.00 W/m2
06:24 11.3 °C 9.6 °C 1009.7 hPa South 6.4 km/h 11.3 km/h 89% 0.0 mm 102.00 W/m2
06:29 11.4 °C 9.7 °C 1009.7 hPa Calm   11.3 km/h 89% 0.0 mm 86.00 W/m2
06:34 11.5 °C 9.7 °C 1009.7 hPa South 9.7 km/h 19.3 km/h 89% 0.0 mm 67.00 W/m2
06:39 11.6 °C 9.7 °C 1009.7 hPa SSE 7.9 km/h 11.3 km/h 88% 0.0 mm 56.00 W/m2
06:44 11.7 °C 9.8 °C 1009.7 hPa South 9.7 km/h 14.5 km/h 88% 0.0 mm 58.00 W/m2
06:49 11.7 °C 9.8 °C 1009.7 hPa South 3.2 km/h 9.7 km/h 88% 0.0 mm 69.00 W/m2
06:54 11.8 °C 9.9 °C 1009.7 hPa South 7.9 km/h 11.3 km/h 88% 0.0 mm 76.00 W/m2
06:59 11.8 °C 9.9 °C 1009.7 hPa SSE 6.4 km/h 12.9 km/h 88% 0.0 mm 65.00 W/m2
07:04 11.8 °C 9.9 °C 1009.7 hPa SE 11.1 km/h 14.5 km/h 88% 0.0 mm 70.00 W/m2
07:09 11.9 °C 10.0 °C 1009.7 hPa South 4.7 km/h 11.3 km/h 88% 0.0 mm 69.00 W/m2
07:14 11.9 °C 9.8 °C 1009.7 hPa SSE 3.2 km/h 8.0 km/h 87% 0.0 mm 79.00 W/m2
07:19 12.0 °C 9.9 °C 1010.0 hPa SSE 7.9 km/h 11.3 km/h 87% 0.0 mm 90.00 W/m2
07:24 12.0 °C 9.9 °C 1010.0 hPa SSW 11.1 km/h 20.9 km/h 87% 0.0 mm 95.00 W/m2
07:29 12.1 °C 9.8 °C 1010.0 hPa South 9.7 km/h 12.9 km/h 86% 0.0 mm 130.00 W/m2
07:34 12.2 °C 9.9 °C 1010.0 hPa SW 7.9 km/h 11.3 km/h 86% 0.0 mm 118.00 W/m2
07:39 12.3 °C 10.0 °C 1010.0 hPa South 7.9 km/h 16.1 km/h 86% 0.0 mm 139.00 W/m2
07:44 12.3 °C 10.0 °C 1010.0 hPa South 4.7 km/h 16.1 km/h 86% 0.0 mm 118.00 W/m2
07:49 12.3 °C 9.9 °C 1010.0 hPa SW 19.3 km/h 19.3 km/h 85% 0.0 mm 104.00 W/m2
07:54 12.4 °C 9.9 °C 1010.0 hPa South 1.4 km/h 9.7 km/h 85% 0.0 mm 76.00 W/m2
07:59 12.3 °C 9.7 °C 1010.0 hPa SSE 7.9 km/h 20.9 km/h 84% 0.0 mm 104.00 W/m2
08:04 12.3 °C 9.5 °C 1010.0 hPa SSW 17.7 km/h 27.4 km/h 83% 0.0 mm 162.00 W/m2
08:09 12.4 °C 9.6 °C 1010.0 hPa SSW 3.2 km/h 11.3 km/h 83% 0.0 mm 162.00 W/m2
08:14 12.5 °C 9.5 °C 1010.0 hPa SSW 16.3 km/h 20.9 km/h 82% 0.0 mm 153.00 W/m2
08:19 12.7 °C 9.7 °C 1010.0 hPa SSW 1.4 km/h 11.3 km/h 82% 0.0 mm 148.00 W/m2
08:24 12.6 °C 9.6 °C 1010.0 hPa SSW 4.7 km/h 17.7 km/h 82% 0.0 mm 105.00 W/m2
08:29 12.5 °C 9.3 °C 1010.0 hPa SSW 3.2 km/h 20.9 km/h 81% 0.0 mm 91.00 W/m2
08:34 12.5 °C 9.3 °C 1010.4 hPa SSW 13.0 km/h 19.3 km/h 81% 0.0 mm 135.00 W/m2
08:39 12.5 °C 9.1 °C 1010.4 hPa South 20.9 km/h 20.9 km/h 80% 0.0 mm 144.00 W/m2
08:44 12.7 °C 9.5 °C 1010.4 hPa SW 3.2 km/h 11.3 km/h 81% 0.0 mm 172.00 W/m2
08:49 12.7 °C 9.3 °C 1010.4 hPa SSW 3.2 km/h 16.1 km/h 80% 0.0 mm 163.00 W/m2
08:54 12.7 °C 9.3 °C 1010.4 hPa South 17.7 km/h 20.9 km/h 80% 0.0 mm 146.00 W/m2
08:59 12.8 °C 9.4 °C 1010.4 hPa SSW 4.7 km/h 8.0 km/h 80% 0.0 mm 139.00 W/m2
09:04 12.8 °C 9.4 °C 1010.4 hPa South 13.0 km/h 22.5 km/h 80% 0.0 mm 146.00 W/m2
09:09 12.8 °C 9.4 °C 1010.0 hPa South 7.9 km/h 19.3 km/h 80% 0.0 mm 193.00 W/m2
09:14 13.0 °C 9.6 °C 1010.4 hPa South 14.3 km/h 17.7 km/h 80% 0.0 mm 311.00 W/m2
09:19 13.0 °C 9.6 °C 1010.0 hPa SSW 7.9 km/h 17.7 km/h 80% 0.0 mm 186.00 W/m2
09:24 13.1 °C 9.7 °C 1010.0 hPa South 7.9 km/h 16.1 km/h 80% 0.0 mm 192.00 W/m2
09:29 13.2 °C 9.8 °C 1010.4 hPa South 9.7 km/h 12.9 km/h 80% 0.0 mm 149.00 W/m2
09:34 13.0 °C 9.6 °C 1010.0 hPa SSW 7.9 km/h 29.0 km/h 80% 0.0 mm 104.00 W/m2
09:39 13.0 °C 9.6 °C 1010.0 hPa South 4.7 km/h 19.3 km/h 80% 0.0 mm 77.00 W/m2
09:44 13.1 °C 9.9 °C 1010.0 hPa Calm   8.0 km/h 81% 0.0 mm 79.00 W/m2
09:49 13.0 °C 9.8 °C 1010.0 hPa SSE 7.9 km/h 14.5 km/h 81% 0.0 mm 91.00 W/m2
09:54 12.9 °C 9.9 °C 1010.4 hPa South 11.1 km/h 11.3 km/h 82% 0.0 mm 88.00 W/m2
09:59 12.6 °C 9.8 °C 1010.4 hPa South 9.7 km/h 24.1 km/h 83% 0.0 mm 97.00 W/m2
10:04 12.5 °C 9.9 °C 1010.4 hPa SSW 6.4 km/h 17.7 km/h 84% 0.0 mm 79.00 W/m2
10:09 12.6 °C 10.1 °C 1010.4 hPa SSE 17.7 km/h 17.7 km/h 85% 0.0 mm 97.00 W/m2
10:14 12.7 °C 10.2 °C 1010.0 hPa SE 14.3 km/h 14.5 km/h 85% 0.0 mm 183.00 W/m2
10:19 12.7 °C 10.4 °C 1010.4 hPa SSW 4.7 km/h 9.7 km/h 86% 0.0 mm 172.00 W/m2
10:24 12.5 °C 10.4 °C 1010.4 hPa SSE 19.3 km/h 20.9 km/h 87% 0.0 mm 148.00 W/m2
10:29 12.4 °C 10.5 °C 1010.4 hPa SSW 11.1 km/h 22.5 km/h 88% 0.0 mm 230.00 W/m2
10:34 12.2 °C 10.3 °C 1010.4 hPa South 9.7 km/h 16.1 km/h 88% 0.0 mm 135.00 W/m2
10:39 12.3 °C 10.5 °C 1010.4 hPa South 9.7 km/h 16.1 km/h 89% 0.0 mm 179.00 W/m2
10:44 12.3 °C 10.5 °C 1010.4 hPa SSW 9.7 km/h 24.1 km/h 89% 0.0 mm 171.00 W/m2
10:49 12.3 °C 10.7 °C 1010.0 hPa South 6.4 km/h 11.3 km/h 90% 0.0 mm 120.00 W/m2
10:54 12.3 °C 10.7 °C 1010.4 hPa SSE 3.2 km/h 11.3 km/h 90% 0.0 mm 95.00 W/m2
10:59 12.4 °C 10.8 °C 1010.0 hPa SSW 1.4 km/h 14.5 km/h 90% 0.0 mm 125.00 W/m2
11:04 12.4 °C 10.8 °C 1010.4 hPa SSW 6.4 km/h 11.3 km/h 90% 0.0 mm 171.00 W/m2
11:09 12.3 °C 10.7 °C 1010.4 hPa SSW 11.1 km/h 20.9 km/h 90% 0.0 mm 76.00 W/m2
11:14 12.3 °C 10.7 °C 1010.4 hPa South 7.9 km/h 12.9 km/h 90% 0.0 mm 202.00 W/m2
11:19 12.5 °C 11.1 °C 1010.4 hPa SSE 4.7 km/h 11.3 km/h 91% 0.0 mm 257.00 W/m2
11:24 12.6 °C 11.0 °C 1010.4 hPa South 9.7 km/h 16.1 km/h 90% 0.0 mm 202.00 W/m2
11:29 12.8 °C 11.2 °C 1010.4 hPa South 17.7 km/h 17.7 km/h 90% 0.0 mm 155.00 W/m2
11:34 12.8 °C 11.2 °C 1010.4 hPa SW 11.1 km/h 11.3 km/h 90% 0.0 mm 244.00 W/m2
11:39 13.1 °C 11.3 °C 1010.4 hPa SSW 13.0 km/h 12.9 km/h 89% 0.0 mm 434.00 W/m2
11:44 13.2 °C 11.3 °C 1010.4 hPa SSW 7.9 km/h 19.3 km/h 88% 0.0 mm 202.00 W/m2
11:49 13.3 °C 11.4 °C 1010.4 hPa SW 9.7 km/h 20.9 km/h 88% 0.0 mm 127.00 W/m2
11:54 13.3 °C 11.2 °C 1010.4 hPa SSW 16.3 km/h 16.1 km/h 87% 0.0 mm 288.00 W/m2
11:59 13.4 °C 11.3 °C 1010.4 hPa SSW 4.7 km/h 14.5 km/h 87% 0.0 mm 450.00 W/m2
12:04 13.5 °C 11.2 °C 1010.4 hPa South 4.7 km/h 11.3 km/h 86% 0.0 mm 415.00 W/m2
12:09 13.9 °C 11.4 °C 1010.4 hPa SW 6.4 km/h 9.7 km/h 85% 0.0 mm 480.00 W/m2
12:14 14.0 °C 11.3 °C 1010.4 hPa South 16.3 km/h 16.1 km/h 84% 0.0 mm 466.00 W/m2
12:19 14.2 °C 11.2 °C 1010.4 hPa SSW 14.3 km/h 19.3 km/h 82% 0.0 mm 452.00 W/m2
12:24 14.4 °C 11.2 °C 1010.4 hPa SSW 7.9 km/h 14.5 km/h 81% 0.0 mm 605.00 W/m2
12:29 14.7 °C 11.3 °C 1010.4 hPa SW 9.7 km/h 12.9 km/h 80% 0.0 mm 541.00 W/m2
12:34 15.0 °C 11.4 °C 1010.4 hPa SSW 13.0 km/h 14.5 km/h 79% 0.0 mm 494.00 W/m2
12:39 15.0 °C 10.8 °C 1010.4 hPa South 9.7 km/h 17.7 km/h 76% 0.0 mm 570.00 W/m2
12:44 15.0 °C 10.8 °C 1010.4 hPa South 11.1 km/h 24.1 km/h 76% 0.0 mm 336.00 W/m2
12:49 14.7 °C 10.7 °C 1010.7 hPa West 4.7 km/h 11.3 km/h 77% 0.0 mm 260.00 W/m2
12:54 14.3 °C 10.9 °C 1010.7 hPa WNW 7.9 km/h 19.3 km/h 80% 0.0 mm 374.00 W/m2
12:59 13.9 °C 10.7 °C 1010.7 hPa WNW 7.9 km/h 16.1 km/h 81% 0.0 mm 322.00 W/m2
13:04 13.8 °C 10.6 °C 1010.7 hPa West 9.7 km/h 22.5 km/h 81% 0.0 mm 279.00 W/m2
13:09 13.7 °C 10.5 °C 1010.7 hPa West 3.2 km/h 14.5 km/h 81% 0.0 mm 236.00 W/m2
13:14 13.7 °C 10.5 °C 1010.7 hPa WNW 6.4 km/h 14.5 km/h 81% 0.0 mm 274.00 W/m2
13:19 13.5 °C 10.3 °C 1010.7 hPa WNW 13.0 km/h 14.5 km/h 81% 0.0 mm 144.00 W/m2
13:24 13.5 °C 10.5 °C 1010.7 hPa WNW 3.2 km/h 11.3 km/h 82% 0.0 mm 285.00 W/m2
13:29 13.4 °C 10.4 °C 1010.7 hPa WNW 12.9 km/h 12.9 km/h 82% 0.0 mm 420.00 W/m2
13:34 13.4 °C 10.4 °C 1010.7 hPa NW 7.9 km/h 14.5 km/h 82% 0.0 mm 441.00 W/m2
13:39 13.7 °C 10.7 °C 1010.7 hPa WNW 3.2 km/h 9.7 km/h 82% 0.0 mm 652.00 W/m2
13:44 14.2 °C 10.8 °C 1010.7 hPa West 1.4 km/h 4.8 km/h 80% 0.0 mm 367.00 W/m2
13:49 14.9 °C 11.5 °C 1010.7 hPa Calm   11.3 km/h 80% 0.0 mm 429.00 W/m2
13:54 15.0 °C 11.2 °C 1010.7 hPa NW 3.2 km/h 8.0 km/h 78% 0.0 mm 199.00 W/m2
13:59 14.9 °C 11.3 °C 1010.7 hPa West 9.7 km/h 16.1 km/h 79% 0.0 mm 81.00 W/m2
14:04 14.3 °C 10.9 °C 1010.7 hPa NW 4.7 km/h 20.9 km/h 80% 0.0 mm 264.00 W/m2
14:09 14.2 °C 11.0 °C 1010.7 hPa WNW 4.7 km/h 11.3 km/h 81% 0.0 mm 232.00 W/m2
14:14 14.2 °C 11.2 °C 1010.7 hPa WNW 7.9 km/h 12.9 km/h 82% 0.0 mm 1167.00 W/m2
14:19 14.2 °C 10.8 °C 1010.7 hPa West 13.0 km/h 16.1 km/h 80% 0.0 mm 339.00 W/m2
14:24 14.2 °C 10.4 °C 1010.7 hPa WNW 4.7 km/h 14.5 km/h 78% 0.0 mm 424.00 W/m2
14:29 14.2 °C 10.2 °C 1010.7 hPa NW 3.2 km/h 9.7 km/h 77% 0.0 mm 380.00 W/m2
14:34 14.3 °C 10.5 °C 1010.4 hPa NNW 9.7 km/h 12.9 km/h 78% 0.0 mm 216.00 W/m2
14:39 14.3 °C 10.5 °C 1010.4 hPa Calm   9.7 km/h 78% 0.0 mm 125.00 W/m2
14:44 14.4 °C 10.6 °C 1010.7 hPa WNW 13.0 km/h 17.7 km/h 78% 0.0 mm 26.00 W/m2
14:49 13.8 °C 10.2 °C 1011.1 hPa West 9.7 km/h 24.1 km/h 79% 0.0 mm 146.00 W/m2
14:54 13.0 °C 9.6 °C 1011.1 hPa WNW 11.1 km/h 14.5 km/h 80% 0.0 mm 320.00 W/m2
14:59 12.7 °C 9.3 °C 1011.1 hPa WNW 4.7 km/h 16.1 km/h 80% 0.0 mm 167.00 W/m2
15:04 12.7 °C 9.3 °C 1011.1 hPa WSW 11.1 km/h 11.3 km/h 80% 0.0 mm 118.00 W/m2
15:09 12.5 °C 9.3 °C 1011.1 hPa WNW 6.4 km/h 9.7 km/h 81% 0.0 mm 230.00 W/m2
15:14 12.5 °C 9.3 °C 1011.1 hPa West 4.7 km/h 9.7 km/h 81% 0.0 mm 114.00 W/m2
15:19 12.5 °C 9.5 °C 1011.1 hPa West 3.2 km/h 8.0 km/h 82% 0.0 mm 105.00 W/m2
15:24 12.7 °C 9.9 °C 1011.4 hPa West 4.7 km/h 4.8 km/h 83% 0.3 mm 230.00 W/m2
15:29 12.9 °C 10.6 °C 1011.4 hPa Calm   4.8 km/h 86% 0.3 mm 643.00 W/m2
15:34 13.3 °C 11.2 °C 1011.1 hPa Calm   3.2 km/h 87% 0.3 mm 318.00 W/m2
15:39 13.5 °C 11.4 °C 1011.1 hPa West 3.2 km/h 6.4 km/h 87% 0.3 mm 851.00 W/m2
15:44 13.5 °C 11.4 °C 1011.1 hPa NW 11.3 km/h 11.3 km/h 87% 0.3 mm 316.00 W/m2
15:49 13.8 °C 11.7 °C 1011.1 hPa WNW 6.4 km/h 6.4 km/h 87% 0.3 mm 749.00 W/m2
15:54 13.9 °C 11.6 °C 1011.4 hPa West 7.9 km/h 8.0 km/h 86% 0.3 mm 211.00 W/m2
15:59 13.9 °C 11.4 °C 1011.4 hPa WNW 14.3 km/h 16.1 km/h 85% 0.3 mm 290.00 W/m2
16:04 13.9 °C 10.9 °C 1011.4 hPa WSW 9.7 km/h 12.9 km/h 82% 0.3 mm 684.00 W/m2
16:09 14.3 °C 10.9 °C 1011.4 hPa West 9.7 km/h 14.5 km/h 80% 0.3 mm 267.00 W/m2
16:14 14.1 °C 10.5 °C 1011.4 hPa SW 14.3 km/h 14.5 km/h 79% 0.3 mm 204.00 W/m2
16:19 13.8 °C 10.0 °C 1011.4 hPa WSW 16.1 km/h 16.1 km/h 78% 0.3 mm 125.00 W/m2
16:24 13.7 °C 10.1 °C 1011.4 hPa West 3.2 km/h 11.3 km/h 79% 0.0 mm 102.00 W/m2
16:29 13.5 °C 9.9 °C 1011.4 hPa West 4.7 km/h 8.0 km/h 79% 0.0 mm 54.00 W/m2
16:34 13.4 °C 10.0 °C 1011.4 hPa West 1.4 km/h 8.0 km/h 80% 0.0 mm 26.00 W/m2
16:39 13.4 °C 10.2 °C 1011.7 hPa WNW 9.7 km/h 9.7 km/h 81% 0.3 mm 30.00 W/m2
16:44 13.0 °C 10.2 °C 1011.7 hPa West 3.2 km/h 12.9 km/h 83% 0.5 mm 32.00 W/m2
16:49 12.7 °C 10.2 °C 1011.7 hPa WNW 4.7 km/h 11.3 km/h 85% 0.8 mm 33.00 W/m2
16:54 12.5 °C 10.2 °C 1011.7 hPa NW 4.7 km/h 11.3 km/h 86% 1.0 mm 74.00 W/m2
16:59 12.2 °C 10.1 °C 1011.7 hPa WNW 7.9 km/h 12.9 km/h 87% 1.0 mm 86.00 W/m2
17:04 12.1 °C 10.2 °C 1011.7 hPa West 1.4 km/h 6.4 km/h 88% 1.5 mm 181.00 W/m2
17:09 12.2 °C 10.4 °C 1011.7 hPa West 1.4 km/h 6.4 km/h 89% 1.5 mm 163.00 W/m2
17:14 12.3 °C 10.5 °C 1011.7 hPa West 3.2 km/h 3.2 km/h 89% 1.5 mm 155.00 W/m2
17:19 12.4 °C 10.6 °C 1011.7 hPa Calm   3.2 km/h 89% 1.5 mm 183.00 W/m2
17:24 12.4 °C 10.8 °C 1011.7 hPa West 1.4 km/h 6.4 km/h 90% 1.5 mm 83.00 W/m2
17:29 12.5 °C 10.9 °C 1011.7 hPa West 3.2 km/h 4.8 km/h 90% 1.5 mm 70.00 W/m2
17:34 12.4 °C 10.8 °C 1011.7 hPa WNW 11.3 km/h 11.3 km/h 90% 1.5 mm 58.00 W/m2
17:39 12.2 °C 10.6 °C 1011.7 hPa West 1.4 km/h 9.7 km/h 90% 1.5 mm 56.00 W/m2
17:44 12.3 °C 10.5 °C 1012.1 hPa West 3.2 km/h 3.2 km/h 89% 1.0 mm 25.00 W/m2
17:49 12.3 °C 10.5 °C 1012.1 hPa Calm   4.8 km/h 89% 0.8 mm 32.00 W/m2
17:54 12.4 °C 10.6 °C 1012.1 hPa Calm   1.6 km/h 89% 0.8 mm 49.00 W/m2
17:59 12.4 °C 10.6 °C 1012.1 hPa West 4.7 km/h 6.4 km/h 89% 0.3 mm 46.00 W/m2
18:04 12.5 °C 10.7 °C 1012.1 hPa West 1.4 km/h 3.2 km/h 89% 0.3 mm 63.00 W/m2
18:09 12.1 °C 10.2 °C 1012.4 hPa Calm   6.4 km/h 88% 0.3 mm 83.00 W/m2
18:14 12.0 °C 10.1 °C 1012.4 hPa SSW 6.4 km/h 9.7 km/h 88% 0.5 mm 105.00 W/m2
18:19 11.8 °C 9.9 °C 1012.4 hPa SSW 4.7 km/h 8.0 km/h 88% 0.5 mm 93.00 W/m2
18:24 11.6 °C 9.5 °C 1012.4 hPa SSW 4.7 km/h 4.8 km/h 87% 0.5 mm 137.00 W/m2
18:29 11.7 °C 9.8 °C 1012.1 hPa Calm   1.6 km/h 88% 0.5 mm 130.00 W/m2
18:34 11.8 °C 9.9 °C 1012.4 hPa SSW 6.4 km/h 6.4 km/h 88% 0.5 mm 425.00 W/m2
18:39 12.0 °C 10.1 °C 1012.1 hPa SSW 1.4 km/h 3.2 km/h 88% 0.5 mm 510.00 W/m2
18:44 12.4 °C 10.5 °C 1012.1 hPa Calm   1.6 km/h 88% 0.5 mm 432.00 W/m2
18:49 12.6 °C 10.7 °C 1012.4 hPa Calm   1.6 km/h 88% 0.5 mm 436.00 W/m2
18:53 12.9 °C 10.8 °C 1012.4 hPa SSW 3.2 km/h 4.8 km/h 87% 0.5 mm 438.00 W/m2
18:59 13.0 °C 10.7 °C 1012.4 hPa SSW 6.4 km/h 9.7 km/h 86% 0.5 mm 411.00 W/m2
19:04 13.1 °C 10.6 °C 1012.4 hPa SSW 7.9 km/h 9.7 km/h 85% 0.5 mm 352.00 W/m2
19:09 13.3 °C 10.7 °C 1012.4 hPa SSW 1.4 km/h 9.7 km/h 84% 0.5 mm 315.00 W/m2
19:14 13.3 °C 10.7 °C 1012.1 hPa Calm   4.8 km/h 84% 0.3 mm 135.00 W/m2
19:19 13.3 °C 10.5 °C 1012.4 hPa SW 3.2 km/h 8.0 km/h 83% 0.0 mm 135.00 W/m2
19:24 13.5 °C 10.7 °C 1012.4 hPa WSW 3.2 km/h 9.7 km/h 83% 0.0 mm 290.00 W/m2
19:29 13.5 °C 10.5 °C 1012.4 hPa WSW 11.3 km/h 11.3 km/h 82% 0.0 mm 258.00 W/m2
19:34 13.3 °C 10.1 °C 1012.4 hPa Calm   8.0 km/h 81% 0.0 mm 209.00 W/m2
19:39 13.3 °C 10.1 °C 1012.4 hPa SW 9.7 km/h 9.7 km/h 81% 0.3 mm 74.00 W/m2
19:44 13.1 °C 9.9 °C 1012.4 hPa SW 3.2 km/h 6.4 km/h 81% 0.3 mm 42.00 W/m2
19:49 12.9 °C 9.9 °C 1012.4 hPa SW 11.3 km/h 11.3 km/h 82% 0.3 mm 33.00 W/m2
19:54 12.8 °C 9.8 °C 1012.4 hPa SW 4.7 km/h 4.8 km/h 82% 0.3 mm 33.00 W/m2
19:59 12.8 °C 10.0 °C 1012.4 hPa SW 1.4 km/h 4.8 km/h 83% 0.3 mm 30.00 W/m2
20:04 12.7 °C 9.9 °C 1012.4 hPa SW 3.2 km/h 3.2 km/h 83% 0.3 mm 58.00 W/m2
20:09 12.7 °C 9.9 °C 1012.4 hPa Calm   3.2 km/h 83% 0.3 mm 28.00 W/m2
20:14 12.7 °C 10.1 °C 1012.4 hPa Calm     84% 0.3 mm 79.00 W/m2
20:19 12.9 °C 10.4 °C 1012.4 hPa Calm     85% 0.3 mm 69.00 W/m2
20:24 13.1 °C 10.6 °C 1012.1 hPa Calm   1.6 km/h 85% 0.3 mm 26.00 W/m2
20:29 12.9 °C 10.4 °C 1012.4 hPa Calm     85% 0.3 mm 19.00 W/m2
20:34 12.7 °C 10.4 °C 1012.4 hPa Calm     86% 0.3 mm 18.00 W/m2
20:39 12.4 °C 10.1 °C 1012.4 hPa Calm     86% 0.0 mm 23.00 W/m2
20:44 12.3 °C 10.2 °C 1012.8 hPa Calm   4.8 km/h 87% 0.0 mm 19.00 W/m2
20:49 12.2 °C 10.1 °C 1012.8 hPa Calm   1.6 km/h 87% 0.0 mm 14.00 W/m2
20:54 12.2 °C 10.1 °C 1012.8 hPa Calm     87% 0.0 mm 9.00 W/m2
20:59 12.1 °C 10.2 °C 1012.8 hPa Calm   3.2 km/h 88% 0.0 mm 7.00 W/m2
21:04 12.0 °C 10.1 °C 1012.8 hPa Calm     88% 0.0 mm 7.00 W/m2
21:09 11.9 °C 10.0 °C 1012.8 hPa Calm   3.2 km/h 88% 0.0 mm 0.00 W/m2
21:14 11.9 °C 10.0 °C 1012.8 hPa Calm     88% 0.0 mm 0.00 W/m2
21:19 11.9 °C 10.1 °C 1012.8 hPa Calm   1.6 km/h 89% 0.0 mm 0.00 W/m2
21:24 11.9 °C 10.1 °C 1013.1 hPa SSW 8.0 km/h 8.0 km/h 89% 0.3 mm 0.00 W/m2
21:29 11.7 °C 9.9 °C 1013.1 hPa SW 1.4 km/h 4.8 km/h 89% 0.3 mm 0.00 W/m2
21:34 11.6 °C 9.8 °C 1013.1 hPa SW 3.2 km/h 6.4 km/h 89% 0.5 mm 0.00 W/m2
21:39 11.4 °C 9.7 °C 1013.1 hPa Calm   4.8 km/h 89% 0.5 mm 0.00 W/m2
21:44 11.4 °C 9.8 °C 1013.1 hPa Calm   6.4 km/h 90% 0.5 mm 0.00 W/m2
21:49 11.3 °C 9.7 °C 1013.4 hPa Calm   3.2 km/h 90% 0.5 mm 0.00 W/m2
21:54 11.3 °C 9.7 °C 1013.1 hPa Calm   6.4 km/h 90% 0.5 mm 0.00 W/m2
21:59 11.3 °C 9.7 °C 1013.4 hPa Calm   3.2 km/h 90% 0.8 mm 0.00 W/m2
22:04 11.2 °C 9.6 °C 1013.4 hPa SW 6.4 km/h 6.4 km/h 90% 0.8 mm 0.00 W/m2
22:09 11.1 °C 9.5 °C 1013.1 hPa Calm   4.8 km/h 90% 0.8 mm 0.00 W/m2
22:14 11.0 °C 9.4 °C 1013.4 hPa Calm     90% 0.8 mm 0.00 W/m2
22:19 11.0 °C 9.6 °C 1013.4 hPa SW 1.4 km/h 1.6 km/h 91% 0.8 mm 0.00 W/m2
22:24 11.0 °C 9.6 °C 1013.4 hPa Calm   1.6 km/h 91% 0.5 mm 0.00 W/m2
22:29 11.0 °C 9.6 °C 1013.4 hPa Calm     91% 0.3 mm 0.00 W/m2
22:34 10.9 °C 9.5 °C 1013.4 hPa Calm   1.6 km/h 91% 0.3 mm 0.00 W/m2
22:39 10.8 °C 9.4 °C 1013.4 hPa Calm     91% 0.3 mm 0.00 W/m2
22:44 10.7 °C 9.3 °C 1013.4 hPa Calm     91% 0.3 mm 0.00 W/m2
22:48 10.7 °C 9.3 °C 1013.4 hPa Calm     91% 0.3 mm 0.00 W/m2
22:54 10.7 °C 9.3 °C 1013.4 hPa Calm     91% 0.3 mm 0.00 W/m2
22:58 10.5 °C 9.1 °C 1013.4 hPa Calm     91% 0.0 mm 0.00 W/m2
23:01 10.5 °C 9.1 °C 1013.4 hPa Calm     91% 0.0 mm 0.00 W/m2
23:06 10.4 °C 9.0 °C 1013.4 hPa Calm     91% 0.0 mm 0.00 W/m2
23:13 10.2 °C 8.8 °C 1013.4 hPa Calm   1.6 km/h 91% 0.0 mm 0.00 W/m2
23:18 10.1 °C 8.7 °C 1013.4 hPa Calm     91% 0.0 mm 0.00 W/m2
23:23 10.0 °C 8.6 °C 1013.4 hPa Calm   1.6 km/h 91% 0.0 mm 0.00 W/m2
23:27 9.9 °C 8.7 °C 1013.8 hPa Calm     92% 0.0 mm 0.00 W/m2
23:31 9.9 °C 8.7 °C 1013.8 hPa Calm   3.2 km/h 92% 0.0 mm 0.00 W/m2
23:37 9.9 °C 8.7 °C 1013.8 hPa Calm     92% 0.0 mm 0.00 W/m2
23:42 9.8 °C 8.6 °C 1013.8 hPa Calm     92% 0.0 mm 0.00 W/m2
23:49 9.7 °C 8.5 °C 1013.8 hPa Calm   1.6 km/h 92% 0.0 mm 0.00 W/m2
23:54 9.6 °C 8.4 °C 1013.8 hPa Calm     92% 0.0 mm 0.00 W/m2
23:59 9.5 °C 8.3 °C 1013.8 hPa Calm     92% 0.0 mm 0.00 W/m2